createdAt,value
2022-11-18T00:01:39.630Z,5.50
2022-11-18T00:04:06.408Z,5.50
2022-11-18T00:06:33.206Z,5.40
2022-11-18T00:08:59.978Z,5.30
2022-11-18T00:11:27.557Z,5.40
2022-11-18T00:13:54.336Z,5.20
2022-11-18T00:16:21.107Z,5.00
2022-11-18T00:18:47.929Z,4.90
2022-11-18T00:21:14.840Z,4.90
2022-11-18T00:23:41.788Z,4.90
2022-11-18T00:26:12.463Z,4.80
2022-11-18T00:28:40.083Z,4.80
2022-11-18T00:31:08.370Z,4.70
2022-11-18T00:33:35.434Z,4.90
2022-11-18T00:36:02.870Z,4.80
2022-11-18T00:38:30.240Z,5.00
2022-11-18T00:41:01.904Z,4.90
2022-11-18T00:43:28.999Z,4.80
2022-11-18T00:48:23.694Z,4.30
2022-11-18T00:50:56.018Z,4.40
2022-11-18T00:53:24.671Z,4.40
2022-11-18T00:55:51.516Z,4.30
2022-11-18T00:58:19.040Z,4.40
2022-11-18T01:00:50.153Z,4.40
2022-11-18T01:03:17.731Z,4.50
2022-11-18T01:05:44.690Z,4.60
2022-11-18T01:08:12.558Z,4.60
2022-11-18T01:10:40.721Z,4.70
2022-11-18T01:13:11.795Z,4.70
2022-11-18T01:15:43.557Z,4.70
2022-11-18T01:18:10.604Z,4.70
2022-11-18T01:20:37.784Z,4.80
2022-11-18T01:23:04.976Z,4.90
2022-11-18T01:25:33.979Z,4.90
2022-11-18T01:28:00.812Z,5.00
2022-11-18T01:30:27.618Z,5.10
2022-11-18T01:32:54.411Z,5.10
2022-11-18T01:35:21.188Z,5.20
2022-11-18T01:37:49.306Z,5.20
2022-11-18T01:40:16.092Z,5.30
2022-11-18T01:42:42.942Z,5.30
2022-11-18T01:45:18.374Z,5.40
2022-11-18T01:47:50.624Z,5.40
2022-11-18T01:50:20.157Z,5.50
2022-11-18T01:52:51.577Z,5.50
2022-11-18T01:55:27.095Z,5.60
2022-11-18T01:58:00.668Z,5.70
2022-11-18T02:00:27.608Z,5.60
2022-11-18T02:02:54.972Z,5.60
2022-11-18T02:05:22.445Z,5.60
2022-11-18T02:07:49.875Z,5.60
2022-11-18T02:10:23.033Z,5.70
2022-11-18T02:12:51.675Z,5.70
2022-11-18T02:15:39.443Z,5.80
2022-11-18T02:18:33.561Z,5.80
2022-11-18T02:21:42.207Z,5.70
2022-11-18T02:24:18.082Z,5.70
2022-11-18T02:27:00.052Z,5.60
2022-11-18T02:29:30.954Z,5.50
2022-11-18T02:32:19.715Z,5.50
2022-11-18T02:35:16.314Z,5.30
2022-11-18T02:38:21.568Z,5.30
2022-11-18T02:40:53.648Z,5.20
2022-11-18T02:43:33.097Z,5.30
2022-11-18T02:46:07.933Z,5.20
2022-11-18T02:48:39.631Z,5.10
2022-11-18T02:51:08.939Z,5.10
2022-11-18T02:53:38.247Z,5.20
2022-11-18T02:56:06.917Z,5.30
2022-11-18T02:58:33.647Z,5.30
2022-11-18T03:01:01.955Z,5.30
2022-11-18T03:03:36.542Z,5.30
2022-11-18T03:06:23.321Z,5.30
2022-11-18T03:08:56.240Z,5.40
2022-11-18T03:11:26.852Z,5.40
2022-11-18T03:14:22.553Z,5.40
2022-11-18T03:16:59.861Z,5.40
2022-11-18T03:20:00.936Z,5.30
2022-11-18T03:22:44.745Z,5.40
2022-11-18T03:25:21.756Z,5.50
2022-11-18T03:28:06.303Z,5.50
2022-11-18T03:30:35.216Z,5.50
2022-11-18T03:33:17.497Z,5.50
2022-11-18T03:35:47.759Z,5.50
2022-11-18T03:38:19.055Z,5.50
2022-11-18T03:40:50.561Z,5.60
2022-11-18T03:43:21.714Z,5.60
2022-11-18T03:45:48.409Z,5.70
2022-11-18T03:48:21.118Z,5.70
2022-11-18T03:50:58.151Z,5.60
2022-11-18T03:53:30.194Z,5.70
2022-11-18T03:56:06.578Z,5.60
2022-11-18T03:58:42.818Z,5.80
2022-11-18T04:01:19.153Z,5.90
2022-11-18T04:03:46.058Z,5.90
2022-11-18T04:06:35.050Z,6.00
2022-11-18T04:09:09.155Z,5.90
2022-11-18T04:11:44.085Z,6.00
2022-11-18T04:14:13.037Z,5.90
2022-11-18T04:16:44.211Z,6.00
2022-11-18T04:19:11.008Z,6.00
2022-11-18T04:21:37.991Z,6.00
2022-11-18T04:24:05.001Z,6.00
2022-11-18T04:26:34.013Z,6.00
2022-11-18T04:29:00.779Z,5.90
2022-11-18T04:31:27.648Z,5.90
2022-11-18T04:33:54.436Z,6.00
2022-11-18T04:36:21.230Z,6.00
2022-11-18T04:38:48.020Z,6.00
2022-11-18T04:41:14.777Z,6.00
2022-11-18T04:43:42.206Z,6.00
2022-11-18T04:46:08.981Z,5.90
2022-11-18T04:48:36.070Z,6.00
2022-11-18T04:51:04.343Z,5.90
2022-11-18T04:53:31.176Z,5.90
2022-11-18T04:56:04.901Z,5.90
2022-11-18T04:58:32.331Z,5.90
2022-11-18T05:00:59.126Z,6.00
2022-11-18T05:03:26.019Z,5.90
2022-11-18T05:05:52.753Z,5.90
2022-11-18T05:08:19.529Z,5.90
2022-11-18T05:10:46.265Z,6.00
2022-11-18T05:13:13.302Z,5.90
2022-11-18T05:15:40.118Z,6.10
2022-11-18T05:18:10.125Z,6.00
2022-11-18T05:20:41.605Z,6.00
2022-11-18T05:23:08.661Z,6.00
2022-11-18T05:25:35.846Z,6.00
2022-11-18T05:28:02.641Z,5.90
2022-11-18T05:30:29.378Z,5.90
2022-11-18T05:32:56.171Z,6.10
2022-11-18T05:35:22.911Z,6.00
2022-11-18T05:37:49.721Z,6.10
2022-11-18T05:40:16.924Z,6.20
2022-11-18T05:42:43.801Z,5.90
2022-11-18T05:45:10.828Z,6.00
2022-11-18T05:47:37.669Z,6.00
2022-11-18T05:50:04.856Z,6.00
2022-11-18T05:52:31.631Z,5.90
2022-11-18T05:54:58.569Z,5.90
2022-11-18T05:57:25.363Z,5.90
2022-11-18T05:59:52.090Z,6.00
2022-11-18T06:02:22.931Z,6.00
2022-11-18T06:04:57.154Z,5.90
2022-11-18T06:07:33.990Z,6.10
2022-11-18T06:10:05.437Z,6.10
2022-11-18T06:12:41.554Z,6.10
2022-11-18T06:15:22.517Z,6.10
2022-11-18T06:17:52.933Z,6.20
2022-11-18T06:20:21.326Z,6.10
2022-11-18T06:22:51.075Z,6.10
2022-11-18T06:25:17.983Z,6.10
2022-11-18T06:27:45.379Z,6.10
2022-11-18T06:30:13.194Z,6.10
2022-11-18T06:32:40.049Z,6.10
2022-11-18T06:35:07.946Z,6.20
2022-11-18T06:37:34.670Z,6.30
2022-11-18T06:40:01.468Z,6.10
2022-11-18T06:42:28.820Z,6.20
2022-11-18T06:44:55.707Z,6.20
2022-11-18T06:47:22.539Z,6.30
2022-11-18T06:49:49.299Z,6.20
2022-11-18T06:52:16.067Z,6.20
2022-11-18T06:54:42.786Z,6.30
2022-11-18T06:57:09.613Z,6.30
2022-11-18T06:59:36.364Z,6.30
2022-11-18T07:02:03.171Z,6.20
2022-11-18T07:04:30.032Z,6.20
2022-11-18T07:06:56.835Z,6.30
2022-11-18T07:09:23.698Z,6.20
2022-11-18T07:11:50.476Z,6.30
2022-11-18T07:14:17.384Z,6.20
2022-11-18T07:16:44.169Z,6.30
2022-11-18T07:19:13.398Z,6.30
2022-11-18T07:21:41.145Z,6.20
2022-11-18T07:24:09.429Z,6.20
2022-11-18T07:26:36.529Z,6.50
2022-11-18T07:29:04.041Z,6.40
2022-11-18T07:31:30.889Z,6.30
2022-11-18T07:33:58.361Z,6.40
2022-11-18T07:36:35.139Z,6.50
2022-11-18T07:39:05.221Z,6.40
2022-11-18T07:41:32.579Z,6.50
2022-11-18T07:44:01.725Z,6.50
2022-11-18T07:46:31.567Z,6.60
2022-11-18T07:49:00.208Z,6.70
2022-11-18T07:51:29.611Z,6.60
2022-11-18T07:53:56.736Z,6.60
2022-11-18T07:56:23.941Z,6.50
2022-11-18T07:58:55.125Z,6.70
2022-11-18T08:01:23.489Z,6.60
2022-11-18T08:03:50.623Z,6.60
2022-11-18T08:06:19.187Z,6.60
2022-11-18T08:08:46.758Z,6.70
2022-11-18T08:11:21.884Z,6.70
2022-11-18T08:13:50.042Z,6.70
2022-11-18T08:16:19.433Z,6.80
2022-11-18T08:18:46.967Z,6.80
2022-11-18T08:21:15.423Z,6.80
2022-11-18T08:23:44.465Z,6.80
2022-11-18T08:26:16.179Z,6.60
2022-11-18T08:28:43.887Z,6.60
2022-11-18T08:31:11.738Z,6.60
2022-11-18T08:33:39.371Z,6.40
2022-11-18T08:36:12.770Z,6.40
2022-11-18T08:38:39.763Z,6.50
2022-11-18T08:41:07.037Z,6.50
2022-11-18T08:43:35.751Z,6.60
2022-11-18T08:46:02.776Z,6.60
2022-11-18T08:48:29.669Z,6.70
2022-11-18T08:50:58.707Z,6.70
2022-11-18T08:53:25.510Z,6.70
2022-11-18T08:55:57.279Z,6.70
2022-11-18T08:58:24.770Z,6.60
2022-11-18T09:00:51.607Z,6.60
2022-11-18T09:03:18.938Z,6.70
2022-11-18T09:05:45.799Z,6.60
2022-11-18T09:08:12.783Z,6.60
2022-11-18T09:10:39.737Z,6.60
2022-11-18T09:13:38.723Z,6.50
2022-11-18T09:15:53.460Z,6.60
2022-11-18T09:18:20.277Z,6.60
2022-11-18T09:21:00.552Z,6.70
2022-11-18T09:23:28.114Z,6.60
2022-11-18T09:25:59.215Z,6.60
2022-11-18T09:28:27.379Z,6.60
2022-11-18T09:30:54.273Z,6.60
2022-11-18T09:33:21.774Z,6.50
2022-11-18T09:35:48.884Z,6.60
2022-11-18T09:38:16.176Z,6.60
2022-11-18T09:41:01.962Z,6.60
2022-11-18T09:43:35.615Z,6.70
2022-11-18T09:46:28.735Z,6.80
2022-11-18T09:49:02.222Z,6.80
2022-11-18T09:51:33.833Z,6.80
2022-11-18T09:54:00.691Z,6.80
2022-11-18T09:56:28.108Z,6.80
2022-11-18T09:58:55.263Z,6.90
2022-11-18T10:01:22.322Z,6.80
2022-11-18T10:03:49.243Z,6.80
2022-11-18T10:06:24.168Z,6.90
2022-11-18T10:09:28.280Z,7.00
2022-11-18T10:12:32.156Z,6.90
2022-11-18T10:15:42.729Z,7.00
2022-11-18T10:18:58.423Z,6.90
2022-11-18T10:21:35.485Z,6.90
2022-11-18T10:24:27.341Z,7.00
2022-11-18T10:27:00.455Z,7.00
2022-11-18T10:29:27.277Z,7.00
2022-11-18T10:31:59.566Z,7.00
2022-11-18T10:34:30.112Z,6.90
2022-11-18T10:36:59.951Z,7.00
2022-11-18T10:39:26.733Z,6.90
2022-11-18T10:41:59.496Z,6.90
2022-11-18T10:44:29.171Z,7.00
2022-11-18T10:46:56.005Z,6.90
2022-11-18T10:49:22.984Z,6.90
2022-11-18T10:52:09.369Z,6.90
2022-11-18T10:54:37.172Z,6.90
2022-11-18T10:57:22.962Z,6.90
2022-11-18T10:59:55.140Z,6.90
2022-11-18T11:02:32.254Z,6.90
2022-11-18T11:05:04.955Z,6.90
2022-11-18T11:07:33.077Z,6.90
2022-11-18T11:10:20.654Z,6.90
2022-11-18T11:12:56.789Z,7.00
2022-11-18T11:15:41.245Z,7.00
2022-11-18T11:18:17.137Z,7.00
2022-11-18T11:20:44.422Z,7.00
2022-11-18T11:23:22.025Z,6.90
2022-11-18T11:28:56.907Z,7.00
2022-11-18T11:31:44.688Z,7.00
2022-11-18T11:34:25.879Z,7.10
2022-11-18T11:36:52.621Z,7.10
2022-11-18T11:39:25.460Z,7.10
2022-11-18T11:42:04.670Z,7.10
2022-11-18T11:44:55.534Z,7.10
2022-11-18T11:47:50.479Z,7.20
2022-11-18T11:50:23.294Z,7.20
2022-11-18T11:52:56.033Z,7.10
2022-11-18T11:55:29.910Z,7.10
2022-11-18T11:58:18.614Z,7.20
2022-11-18T12:00:55.990Z,7.10
2022-11-18T12:03:41.144Z,7.10
2022-11-18T12:06:10.909Z,7.10
2022-11-18T12:08:40.865Z,7.20
2022-11-18T12:11:20.284Z,7.00
2022-11-18T12:14:03.392Z,7.00
2022-11-18T12:16:55.355Z,7.20
2022-11-18T12:19:23.284Z,7.20
2022-11-18T12:21:50.114Z,7.10
2022-11-18T12:24:19.872Z,7.00
2022-11-18T12:26:49.209Z,7.20
2022-11-18T12:29:19.152Z,7.20
2022-11-18T12:31:57.215Z,7.10
2022-11-18T12:34:29.316Z,7.10
2022-11-18T12:36:56.521Z,7.10
2022-11-18T12:39:26.313Z,7.00
2022-11-18T12:42:03.423Z,7.10
2022-11-18T12:44:30.587Z,7.10
2022-11-18T12:46:59.284Z,7.10
2022-11-18T12:49:26.006Z,7.10
2022-11-18T12:52:00.895Z,7.10
2022-11-18T12:54:49.172Z,7.00
2022-11-18T12:57:19.364Z,6.90
2022-11-18T12:59:46.733Z,6.90
2022-11-18T13:02:27.912Z,6.90
2022-11-18T13:05:07.021Z,6.90
2022-11-18T13:07:57.530Z,6.90
2022-11-18T13:10:29.147Z,6.80
2022-11-18T13:12:56.338Z,6.90
2022-11-18T13:15:23.931Z,6.70
2022-11-18T13:18:25.558Z,6.70
2022-11-18T13:20:57.816Z,6.70
2022-11-18T13:23:28.174Z,6.70
2022-11-18T13:26:03.254Z,6.60
2022-11-18T13:28:51.117Z,6.60
2022-11-18T13:31:34.782Z,6.70
2022-11-18T13:34:03.251Z,6.60
2022-11-18T13:36:32.100Z,6.70
2022-11-18T13:39:06.859Z,6.60
2022-11-18T13:41:35.463Z,6.70
2022-11-18T13:44:23.249Z,6.60
2022-11-18T13:46:55.850Z,6.60
2022-11-18T13:49:36.712Z,6.60
2022-11-18T13:52:04.087Z,6.60
2022-11-18T13:54:31.046Z,6.80
2022-11-18T13:56:57.983Z,6.70
2022-11-18T13:59:25.273Z,6.70
2022-11-18T14:01:58.951Z,6.70
2022-11-18T14:04:29.542Z,6.80
2022-11-18T14:07:16.120Z,6.70
2022-11-18T14:10:06.672Z,6.70
2022-11-18T14:15:32.982Z,6.60
2022-11-18T14:18:01.909Z,6.70
2022-11-18T14:20:30.831Z,6.60
2022-11-18T14:23:00.480Z,6.60
2022-11-18T14:25:31.359Z,6.60
2022-11-18T14:28:12.312Z,6.60
2022-11-18T14:30:41.209Z,6.60
2022-11-18T14:33:19.511Z,6.60
2022-11-18T14:36:13.855Z,6.60
2022-11-18T14:39:25.441Z,6.60
2022-11-18T14:41:38.571Z,6.60
2022-11-18T14:44:09.373Z,6.70
2022-11-18T14:46:37.826Z,6.60
2022-11-18T14:49:06.544Z,6.70
2022-11-18T14:51:33.334Z,6.60
2022-11-18T14:54:00.110Z,6.50
2022-11-18T14:56:34.935Z,6.60
2022-11-18T14:59:01.717Z,6.60
2022-11-18T15:01:30.473Z,6.60
2022-11-18T15:03:58.099Z,6.70
2022-11-18T15:06:24.963Z,6.70
2022-11-18T15:08:53.261Z,6.70
2022-11-18T15:11:20.312Z,6.60
2022-11-18T15:13:47.398Z,6.60
2022-11-18T15:16:23.535Z,6.60
2022-11-18T15:18:55.805Z,6.60
2022-11-18T15:21:23.686Z,6.60
2022-11-18T15:23:50.679Z,6.60
2022-11-18T15:26:29.557Z,6.60
2022-11-18T15:28:57.691Z,6.60
2022-11-18T15:31:25.284Z,6.70
2022-11-18T15:33:52.513Z,6.60
2022-11-18T15:36:22.007Z,6.70
2022-11-18T15:38:49.806Z,6.60
2022-11-18T15:41:22.031Z,6.70
2022-11-18T15:43:49.841Z,6.70
2022-11-18T15:46:18.197Z,6.70
2022-11-18T15:48:45.586Z,6.70
2022-11-18T15:51:12.829Z,6.70
2022-11-18T15:53:40.047Z,6.80
2022-11-18T15:56:19.134Z,6.70
2022-11-18T15:58:52.201Z,6.70
2022-11-18T16:01:19.634Z,6.60
2022-11-18T16:03:46.537Z,6.60
2022-11-18T16:06:13.494Z,6.60
2022-11-18T16:08:40.309Z,6.60
2022-11-18T16:11:07.279Z,6.60
2022-11-18T16:13:34.103Z,6.50
2022-11-18T16:16:00.988Z,6.50
2022-11-18T16:18:27.741Z,6.50
2022-11-18T16:20:58.377Z,6.40
2022-11-18T16:23:25.495Z,6.50
2022-11-18T16:25:54.066Z,6.60
2022-11-18T16:28:20.910Z,6.70
2022-11-18T16:30:50.887Z,6.60
2022-11-18T16:33:17.747Z,6.60
2022-11-18T16:35:48.532Z,6.60
2022-11-18T16:38:15.319Z,6.60
2022-11-18T16:40:42.256Z,6.60
2022-11-18T16:43:09.144Z,6.50
2022-11-18T16:45:36.188Z,6.50
2022-11-18T16:48:03.162Z,6.50
2022-11-18T16:50:32.392Z,6.50
2022-11-18T16:52:59.440Z,6.40
2022-11-18T16:55:26.261Z,6.40
2022-11-18T16:57:53.045Z,6.40
2022-11-18T17:00:20.013Z,6.40
2022-11-18T17:02:49.836Z,6.50
2022-11-18T17:05:17.062Z,6.50
2022-11-18T17:07:43.992Z,6.50
2022-11-18T17:10:10.881Z,6.50
2022-11-18T17:12:37.665Z,6.40
2022-11-18T17:15:05.097Z,6.50
2022-11-18T17:17:31.907Z,6.50
2022-11-18T17:19:58.811Z,6.50
2022-11-18T17:22:26.024Z,6.50
2022-11-18T17:24:53.269Z,6.40
2022-11-18T17:27:20.443Z,6.40
2022-11-18T17:29:47.511Z,6.30
2022-11-18T17:32:14.383Z,6.40
2022-11-18T17:34:41.152Z,6.40
2022-11-18T17:37:07.984Z,6.40
2022-11-18T17:39:35.411Z,6.30
2022-11-18T17:42:02.365Z,6.30
2022-11-18T17:44:29.203Z,6.50
2022-11-18T17:46:56.200Z,6.40
2022-11-18T17:49:23.674Z,6.40
2022-11-18T17:51:50.971Z,6.40
2022-11-18T17:54:21.475Z,6.50
2022-11-18T17:56:49.187Z,6.50
2022-11-18T17:59:16.503Z,6.40
2022-11-18T18:01:44.323Z,6.50
2022-11-18T18:04:12.176Z,6.40
2022-11-18T18:06:38.942Z,6.40
2022-11-18T18:09:05.772Z,6.30
2022-11-18T18:11:32.753Z,6.50
2022-11-18T18:13:59.515Z,6.50
2022-11-18T18:16:28.493Z,6.50
2022-11-18T18:18:55.624Z,6.50
2022-11-18T18:21:22.427Z,6.60
2022-11-18T18:23:49.837Z,6.50
2022-11-18T18:26:18.932Z,6.10
2022-11-18T18:28:46.426Z,6.00
2022-11-18T18:31:15.408Z,5.90
2022-11-18T18:33:43.127Z,5.70
2022-11-18T18:36:13.395Z,5.70
2022-11-18T18:38:41.952Z,5.70
2022-11-18T18:41:18.117Z,5.70
2022-11-18T18:43:46.078Z,5.60
2022-11-18T18:46:18.005Z,5.50
2022-11-18T18:48:45.796Z,5.60
2022-11-18T18:51:13.039Z,5.60
2022-11-18T18:53:40.111Z,5.70
2022-11-18T18:56:07.406Z,5.60
2022-11-18T18:58:35.277Z,5.60
2022-11-18T19:01:08.362Z,5.50
2022-11-18T19:03:36.024Z,5.60
2022-11-18T19:06:51.651Z,5.60
2022-11-18T19:09:14.009Z,5.60
2022-11-18T19:11:41.067Z,5.70
2022-11-18T19:14:14.040Z,5.60
2022-11-18T19:16:41.996Z,5.60
2022-11-18T19:19:11.944Z,5.60
2022-11-18T19:21:39.353Z,5.60
2022-11-18T19:24:18.328Z,5.60
2022-11-18T19:26:54.764Z,5.60
2022-11-18T19:29:25.588Z,5.60
2022-11-18T19:31:52.796Z,5.70
2022-11-18T19:34:20.617Z,5.70
2022-11-18T19:36:48.366Z,5.70
2022-11-18T19:39:15.186Z,5.70
2022-11-18T19:41:42.162Z,5.70
2022-11-18T19:44:09.256Z,5.70
2022-11-18T19:46:36.498Z,5.70
2022-11-18T19:49:03.415Z,5.80
2022-11-18T19:51:31.121Z,5.80
2022-11-18T19:53:59.805Z,5.80
2022-11-18T19:56:27.157Z,5.80
2022-11-18T19:58:54.785Z,5.80
2022-11-18T20:01:25.664Z,5.70
2022-11-18T20:03:56.028Z,5.70
2022-11-18T20:06:24.453Z,5.60
2022-11-18T20:08:52.153Z,5.80
2022-11-18T20:11:21.107Z,5.80
2022-11-18T20:13:48.479Z,5.80
2022-11-18T20:16:17.226Z,5.70
2022-11-18T20:18:47.187Z,5.80
2022-11-18T20:21:16.651Z,5.70
2022-11-18T20:23:44.020Z,5.80
2022-11-18T20:26:13.848Z,5.80
2022-11-18T20:28:42.634Z,5.80
2022-11-18T20:31:12.958Z,5.70
2022-11-18T20:33:42.303Z,5.60
2022-11-18T20:36:14.830Z,5.70
2022-11-18T20:38:43.825Z,5.70
2022-11-18T20:41:12.100Z,5.70
2022-11-18T20:43:39.819Z,5.60
2022-11-18T20:46:09.039Z,5.60
2022-11-18T20:48:37.637Z,5.60
2022-11-18T20:51:13.586Z,5.60
2022-11-18T20:53:42.486Z,5.60
2022-11-18T20:56:12.255Z,5.70
2022-11-18T20:58:39.924Z,5.80
2022-11-18T21:01:26.444Z,5.80
2022-11-18T21:03:55.906Z,5.60
2022-11-18T21:06:25.094Z,5.60
2022-11-18T21:09:10.995Z,5.60
2022-11-18T21:11:38.933Z,5.60
2022-11-18T21:14:05.832Z,5.60
2022-11-18T21:16:32.802Z,5.60
2022-11-18T21:18:59.681Z,5.60
2022-11-18T21:21:26.641Z,5.70
2022-11-18T21:23:55.181Z,5.60
2022-11-18T21:26:26.969Z,5.70
2022-11-18T21:28:55.427Z,5.70
2022-11-18T21:31:23.697Z,5.70
2022-11-18T21:33:51.778Z,5.70
2022-11-18T21:36:19.886Z,5.60
2022-11-18T21:38:46.759Z,5.50
2022-11-18T21:41:14.134Z,5.50
2022-11-18T21:44:04.313Z,5.50
2022-11-18T21:46:28.922Z,5.50
2022-11-18T21:48:59.935Z,5.40
2022-11-18T21:51:27.582Z,5.50
2022-11-18T21:53:54.704Z,5.60
2022-11-18T21:56:24.074Z,5.40
2022-11-18T21:58:51.916Z,5.50
2022-11-18T22:01:21.518Z,5.50
2022-11-18T22:03:55.268Z,5.50
2022-11-18T22:06:24.478Z,5.40
2022-11-18T22:08:52.492Z,5.40
2022-11-18T22:11:19.491Z,5.30
2022-11-18T22:13:46.401Z,5.30
2022-11-18T22:16:16.057Z,5.30
2022-11-18T22:18:51.599Z,5.30
2022-11-18T22:21:21.874Z,5.30
2022-11-18T22:23:49.127Z,5.30
2022-11-18T22:26:21.388Z,5.20
2022-11-18T22:28:53.256Z,5.30
2022-11-18T22:31:21.585Z,5.20
2022-11-18T22:33:50.035Z,5.20
2022-11-18T22:36:18.680Z,5.30
2022-11-18T22:38:46.026Z,5.40
2022-11-18T22:41:15.041Z,5.40
2022-11-18T22:43:41.815Z,5.40
2022-11-18T22:46:08.812Z,5.40
2022-11-18T22:48:35.841Z,5.30
2022-11-18T22:51:06.953Z,5.30
2022-11-18T22:53:34.066Z,5.20
2022-11-18T22:56:05.462Z,5.10
2022-11-18T22:58:32.898Z,5.10
2022-11-18T23:01:01.243Z,5.10
2022-11-18T23:03:28.745Z,5.10
2022-11-18T23:05:57.426Z,5.00
2022-11-18T23:08:25.459Z,5.10
2022-11-18T23:10:52.530Z,5.10
2022-11-18T23:13:19.640Z,4.90
2022-11-18T23:15:46.459Z,4.80
2022-11-18T23:18:13.226Z,4.80
2022-11-18T23:20:40.044Z,4.90
2022-11-18T23:23:06.789Z,5.00
2022-11-18T23:25:33.539Z,4.90
2022-11-18T23:28:00.516Z,4.90
2022-11-18T23:30:27.318Z,4.70
2022-11-18T23:32:54.248Z,4.70
2022-11-18T23:35:21.038Z,4.60
2022-11-18T23:37:47.877Z,4.70
2022-11-18T23:40:15.150Z,4.60
2022-11-18T23:42:42.065Z,4.40
2022-11-18T23:45:09.437Z,4.20
2022-11-18T23:47:36.331Z,4.30
2022-11-18T23:50:03.185Z,4.00
2022-11-18T23:54:57.229Z,4.00
2022-11-18T23:57:24.030Z,3.80
2022-11-18T23:59:50.810Z,3.80
